Información del aeropuerto LGKP

Información de pista
Pista 12 Longitud 7871 ft Anchura 98 ft
Elevación 36 ft Umbral 492 ft Rumbo 124
Pista 30 Longitud 7871 ft Anchura 98 ft
Elevación 62 ft Umbral 492 ft Rumbo 304
Frecuencias del aeropuerto
Tipo A/G Nombre RDO Frecuencia 563.7 MHZ
Tipo INFO Nombre INFO Frecuencia 122.1 MHZ
Radioayudas del aeropuerto
Tipo NDB Nombre Karpathos Frecuencia 314 KHZ
Tipo TACAN Nombre Karpathos Frecuencia 109600 KHZ
Información meteorológica del aeropuerto y NOTAM
ADDS - METARS form results

(0423 UTC 28 February 2021)
Data provider http://aviationweather.gov/metar/data/
 
METAR text: LGKP 280400Z AUTO 30014KT //// // ////// 14/10 Q1017 RE//
Conditions at: LGKP (KARPATHOS , GR) observed 0400 UTC 28 February 2021
Temperature: 14.0°C (57°F)
Dewpoint: 10.0°C (50°F) [RH = 77%]
Pressure (altimeter): 30.03 inches Hg (1017.0 mb)
Winds: from the WNW (300 degrees) at 16 MPH (14 knots; 7.2 m/s)
Visibility: missing
Ceiling: unknown
Clouds: missing
Weather: no significant weather observed at this time

METAR text: LGKP 280330Z AUTO 31015KT //// // ////// 14/10 Q1017 RE//
Conditions at: LGKP (KARPATHOS , GR) observed 0330 UTC 28 February 2021
Temperature: 14.0°C (57°F)
Dewpoint: 10.0°C (50°F) [RH = 77%]
Pressure (altimeter): 30.03 inches Hg (1017.0 mb)
Winds: from the NW (310 degrees) at 17 MPH (15 knots; 7.7 m/s)
Visibility: missing
Ceiling: unknown
Clouds: missing
Weather: no significant weather observed at this time

Forecast for: LGKP (KARPATHOS , GR)
Text: TAF LGKP 280200Z 2803/2812 30015KT 9999 SCT018
Forecast period: 0300 to 1200 UTC 28 February 2021
Forecast type: FROM: standard forecast or significant change
Winds: from the WNW (300 degrees) at 17 MPH (15 knots; 7.7 m/s)
Visibility: 6 or more miles (10+ km)
Ceiling: at least 12,000 feet AGL
Clouds: scattered clouds at 1800 feet AGL
Weather: no significant weather forecast for this period